sensor_id;sensor_type;location;lat;lon;timestamp;temperature;humidity
19781;DHT22;10050;55.492;13.506;2022-12-10T00:01:33;1.70;99.90
19781;DHT22;10050;55.492;13.506;2022-12-10T00:03:59;1.80;99.90
19781;DHT22;10050;55.492;13.506;2022-12-10T00:06:28;1.70;99.90
19781;DHT22;10050;55.492;13.506;2022-12-10T00:08:54;1.70;99.90
19781;DHT22;10050;55.492;13.506;2022-12-10T00:11:21;1.70;99.90
19781;DHT22;10050;55.492;13.506;2022-12-10T00:13:48;1.70;99.90
19781;DHT22;10050;55.492;13.506;2022-12-10T00:16:16;1.70;99.90
19781;DHT22;10050;55.492;13.506;2022-12-10T00:18:43;1.70;99.90
19781;DHT22;10050;55.492;13.506;2022-12-10T00:21:11;1.70;99.90
19781;DHT22;10050;55.492;13.506;2022-12-10T00:23:38;1.70;99.90
19781;DHT22;10050;55.492;13.506;2022-12-10T00:26:10;1.60;99.90
19781;DHT22;10050;55.492;13.506;2022-12-10T00:28:36;1.60;99.90
19781;DHT22;10050;55.492;13.506;2022-12-10T00:31:07;1.60;99.90
19781;DHT22;10050;55.492;13.506;2022-12-10T00:33:33;1.60;99.90
19781;DHT22;10050;55.492;13.506;2022-12-10T00:36:14;1.60;99.90
19781;DHT22;10050;55.492;13.506;2022-12-10T00:38:41;1.60;99.90
19781;DHT22;10050;55.492;13.506;2022-12-10T00:41:07;1.60;99.90
19781;DHT22;10050;55.492;13.506;2022-12-10T00:43:33;1.60;99.90
19781;DHT22;10050;55.492;13.506;2022-12-10T00:45:59;1.70;99.90
19781;DHT22;10050;55.492;13.506;2022-12-10T00:48:25;1.70;99.90
19781;DHT22;10050;55.492;13.506;2022-12-10T00:53:29;1.60;99.90
19781;DHT22;10050;55.492;13.506;2022-12-10T00:55:56;1.60;99.90
19781;DHT22;10050;55.492;13.506;2022-12-10T00:58:23;1.60;99.90
19781;DHT22;10050;55.492;13.506;2022-12-10T01:00:51;1.60;99.90
19781;DHT22;10050;55.492;13.506;2022-12-10T01:03:16;1.70;99.90
19781;DHT22;10050;55.492;13.506;2022-12-10T01:05:42;1.70;99.90
19781;DHT22;10050;55.492;13.506;2022-12-10T01:08:08;1.70;99.90
19781;DHT22;10050;55.492;13.506;2022-12-10T01:10:34;1.70;99.90
19781;DHT22;10050;55.492;13.506;2022-12-10T01:12:59;1.80;99.90
19781;DHT22;10050;55.492;13.506;2022-12-10T01:15:25;1.80;99.90
19781;DHT22;10050;55.492;13.506;2022-12-10T01:17:50;1.80;99.90
19781;DHT22;10050;55.492;13.506;2022-12-10T01:20:16;1.80;99.90
19781;DHT22;10050;55.492;13.506;2022-12-10T01:22:42;1.80;99.90
19781;DHT22;10050;55.492;13.506;2022-12-10T01:25:08;1.80;99.90
19781;DHT22;10050;55.492;13.506;2022-12-10T01:27:34;1.80;99.90
19781;DHT22;10050;55.492;13.506;2022-12-10T01:29:59;1.80;99.90
19781;DHT22;10050;55.492;13.506;2022-12-10T01:32:25;1.80;99.90
19781;DHT22;10050;55.492;13.506;2022-12-10T01:34:51;1.90;99.90
19781;DHT22;10050;55.492;13.506;2022-12-10T01:37:16;1.90;99.90
19781;DHT22;10050;55.492;13.506;2022-12-10T01:39:42;1.90;99.90
19781;DHT22;10050;55.492;13.506;2022-12-10T01:42:13;1.90;99.90
19781;DHT22;10050;55.492;13.506;2022-12-10T01:47:08;1.90;99.90
19781;DHT22;10050;55.492;13.506;2022-12-10T01:49:36;1.90;99.90
19781;DHT22;10050;55.492;13.506;2022-12-10T01:52:04;1.90;99.90
19781;DHT22;10050;55.492;13.506;2022-12-10T01:54:33;1.80;99.90
19781;DHT22;10050;55.492;13.506;2022-12-10T01:57:21;1.80;99.90
19781;DHT22;10050;55.492;13.506;2022-12-10T01:59:52;1.90;99.90
19781;DHT22;10050;55.492;13.506;2022-12-10T02:13:04;1.90;99.90
19781;DHT22;10050;55.492;13.506;2022-12-10T02:15:33;1.90;99.90
19781;DHT22;10050;55.492;13.506;2022-12-10T02:18:05;1.90;99.90
19781;DHT22;10050;55.492;13.506;2022-12-10T02:20:36;1.90;99.90
19781;DHT22;10050;55.492;13.506;2022-12-10T02:23:07;1.90;99.90
19781;DHT22;10050;55.492;13.506;2022-12-10T02:26:04;1.90;99.90
19781;DHT22;10050;55.492;13.506;2022-12-10T02:31:35;1.90;99.90
19781;DHT22;10050;55.492;13.506;2022-12-10T02:34:04;1.90;99.90
19781;DHT22;10050;55.492;13.506;2022-12-10T02:36:33;1.90;99.90
19781;DHT22;10050;55.492;13.506;2022-12-10T02:39:01;1.90;99.90
19781;DHT22;10050;55.492;13.506;2022-12-10T02:41:34;1.90;99.90
19781;DHT22;10050;55.492;13.506;2022-12-10T02:44:03;1.90;99.90
19781;DHT22;10050;55.492;13.506;2022-12-10T02:46:32;1.90;99.90
19781;DHT22;10050;55.492;13.506;2022-12-10T02:48:58;1.90;99.90
19781;DHT22;10050;55.492;13.506;2022-12-10T02:51:25;1.80;99.90
19781;DHT22;10050;55.492;13.506;2022-12-10T02:54:01;1.90;99.90
19781;DHT22;10050;55.492;13.506;2022-12-10T02:56:34;1.90;99.90
19781;DHT22;10050;55.492;13.506;2022-12-10T03:01:59;1.90;99.90
19781;DHT22;10050;55.492;13.506;2022-12-10T03:04:44;1.90;99.90
19781;DHT22;10050;55.492;13.506;2022-12-10T03:07:18;1.90;99.90
19781;DHT22;10050;55.492;13.506;2022-12-10T03:09:53;1.80;99.90
19781;DHT22;10050;55.492;13.506;2022-12-10T03:12:41;1.80;99.90
19781;DHT22;10050;55.492;13.506;2022-12-10T03:15:10;1.80;99.90
19781;DHT22;10050;55.492;13.506;2022-12-10T03:17:38;1.80;99.90
19781;DHT22;10050;55.492;13.506;2022-12-10T03:20:08;1.80;99.90
19781;DHT22;10050;55.492;13.506;2022-12-10T03:22:38;1.80;99.90
19781;DHT22;10050;55.492;13.506;2022-12-10T03:25:06;1.80;99.90
19781;DHT22;10050;55.492;13.506;2022-12-10T03:27:33;1.80;99.90
19781;DHT22;10050;55.492;13.506;2022-12-10T03:30:00;1.80;99.90
19781;DHT22;10050;55.492;13.506;2022-12-10T03:32:27;1.80;99.90
19781;DHT22;10050;55.492;13.506;2022-12-10T03:34:54;1.80;99.90
19781;DHT22;10050;55.492;13.506;2022-12-10T03:37:23;1.80;99.90
19781;DHT22;10050;55.492;13.506;2022-12-10T03:39:49;1.80;99.90
19781;DHT22;10050;55.492;13.506;2022-12-10T03:42:15;1.90;99.90
19781;DHT22;10050;55.492;13.506;2022-12-10T03:44:41;1.90;99.90
19781;DHT22;10050;55.492;13.506;2022-12-10T03:47:10;1.80;99.90
19781;DHT22;10050;55.492;13.506;2022-12-10T03:49:36;1.80;99.90
19781;DHT22;10050;55.492;13.506;2022-12-10T03:52:02;1.80;99.90
19781;DHT22;10050;55.492;13.506;2022-12-10T03:54:28;1.70;99.90
19781;DHT22;10050;55.492;13.506;2022-12-10T03:56:53;1.80;99.90
19781;DHT22;10050;55.492;13.506;2022-12-10T03:59:19;1.80;99.90
19781;DHT22;10050;55.492;13.506;2022-12-10T04:01:45;1.80;99.90
19781;DHT22;10050;55.492;13.506;2022-12-10T04:04:10;1.80;99.90
19781;DHT22;10050;55.492;13.506;2022-12-10T04:06:40;1.80;99.90
19781;DHT22;10050;55.492;13.506;2022-12-10T04:09:08;1.90;99.90
19781;DHT22;10050;55.492;13.506;2022-12-10T04:11:34;1.80;99.90
19781;DHT22;10050;55.492;13.506;2022-12-10T04:13:59;1.80;99.90
19781;DHT22;10050;55.492;13.506;2022-12-10T04:16:44;1.80;99.90
19781;DHT22;10050;55.492;13.506;2022-12-10T04:19:12;1.80;99.90
19781;DHT22;10050;55.492;13.506;2022-12-10T04:21:39;1.80;99.90
19781;DHT22;10050;55.492;13.506;2022-12-10T04:24:25;1.80;99.90
19781;DHT22;10050;55.492;13.506;2022-12-10T04:27:29;1.80;99.90
19781;DHT22;10050;55.492;13.506;2022-12-10T04:29:56;1.80;99.90
19781;DHT22;10050;55.492;13.506;2022-12-10T04:32:24;1.80;99.90
19781;DHT22;10050;55.492;13.506;2022-12-10T04:34:50;1.80;99.90
19781;DHT22;10050;55.492;13.506;2022-12-10T04:37:17;1.80;99.90
19781;DHT22;10050;55.492;13.506;2022-12-10T04:39:42;1.80;99.90
19781;DHT22;10050;55.492;13.506;2022-12-10T04:42:08;1.80;99.90
19781;DHT22;10050;55.492;13.506;2022-12-10T04:44:35;1.80;99.90
19781;DHT22;10050;55.492;13.506;2022-12-10T04:47:00;1.80;99.90
19781;DHT22;10050;55.492;13.506;2022-12-10T04:49:26;1.80;99.90
19781;DHT22;10050;55.492;13.506;2022-12-10T04:51:52;1.80;99.90
19781;DHT22;10050;55.492;13.506;2022-12-10T04:54:18;1.80;99.90
19781;DHT22;10050;55.492;13.506;2022-12-10T04:56:45;1.80;99.90
19781;DHT22;10050;55.492;13.506;2022-12-10T04:59:11;1.80;99.90
19781;DHT22;10050;55.492;13.506;2022-12-10T05:01:36;1.80;99.90
19781;DHT22;10050;55.492;13.506;2022-12-10T05:04:05;1.80;99.90
19781;DHT22;10050;55.492;13.506;2022-12-10T05:06:30;1.80;99.90
19781;DHT22;10050;55.492;13.506;2022-12-10T05:08:57;1.80;99.90
19781;DHT22;10050;55.492;13.506;2022-12-10T05:11:24;1.80;99.90
19781;DHT22;10050;55.492;13.506;2022-12-10T05:13:52;1.80;99.90
19781;DHT22;10050;55.492;13.506;2022-12-10T05:16:20;1.80;99.90
19781;DHT22;10050;55.492;13.506;2022-12-10T05:18:46;1.90;99.90
19781;DHT22;10050;55.492;13.506;2022-12-10T05:21:14;1.90;99.90
19781;DHT22;10050;55.492;13.506;2022-12-10T05:23:46;1.80;99.90
19781;DHT22;10050;55.492;13.506;2022-12-10T05:26:18;1.80;99.90
19781;DHT22;10050;55.492;13.506;2022-12-10T05:28:52;1.80;99.90
19781;DHT22;10050;55.492;13.506;2022-12-10T05:31:20;1.90;99.90
19781;DHT22;10050;55.492;13.506;2022-12-10T05:33:47;1.90;99.90
19781;DHT22;10050;55.492;13.506;2022-12-10T05:36:15;1.90;99.90
19781;DHT22;10050;55.492;13.506;2022-12-10T05:38:41;1.80;99.90
19781;DHT22;10050;55.492;13.506;2022-12-10T05:41:12;1.80;99.90
19781;DHT22;10050;55.492;13.506;2022-12-10T05:43:38;1.80;99.90
19781;DHT22;10050;55.492;13.506;2022-12-10T05:46:07;1.80;99.90
19781;DHT22;10050;55.492;13.506;2022-12-10T05:48:34;1.80;99.90
19781;DHT22;10050;55.492;13.506;2022-12-10T05:51:04;1.80;99.90
19781;DHT22;10050;55.492;13.506;2022-12-10T05:53:30;1.80;99.90
19781;DHT22;10050;55.492;13.506;2022-12-10T05:56:00;1.80;99.90
19781;DHT22;10050;55.492;13.506;2022-12-10T05:58:27;1.80;99.90
19781;DHT22;10050;55.492;13.506;2022-12-10T06:00:54;1.80;99.90
19781;DHT22;10050;55.492;13.506;2022-12-10T06:03:20;1.80;99.90
19781;DHT22;10050;55.492;13.506;2022-12-10T06:05:46;1.80;99.90
19781;DHT22;10050;55.492;13.506;2022-12-10T06:08:11;1.80;99.90
19781;DHT22;10050;55.492;13.506;2022-12-10T06:10:37;1.80;99.90
19781;DHT22;10050;55.492;13.506;2022-12-10T06:13:03;1.80;99.90
19781;DHT22;10050;55.492;13.506;2022-12-10T06:15:30;1.80;99.90
19781;DHT22;10050;55.492;13.506;2022-12-10T06:17:56;1.90;99.90
19781;DHT22;10050;55.492;13.506;2022-12-10T06:20:23;1.80;99.90
19781;DHT22;10050;55.492;13.506;2022-12-10T06:22:48;1.90;99.90
19781;DHT22;10050;55.492;13.506;2022-12-10T06:25:14;1.90;99.90
19781;DHT22;10050;55.492;13.506;2022-12-10T06:27:40;1.90;99.90
19781;DHT22;10050;55.492;13.506;2022-12-10T06:30:06;1.80;99.90
19781;DHT22;10050;55.492;13.506;2022-12-10T06:32:32;1.80;99.90
19781;DHT22;10050;55.492;13.506;2022-12-10T06:34:57;1.80;99.90
19781;DHT22;10050;55.492;13.506;2022-12-10T06:37:23;1.70;99.90
19781;DHT22;10050;55.492;13.506;2022-12-10T06:39:52;1.70;99.90
19781;DHT22;10050;55.492;13.506;2022-12-10T06:42:19;1.60;99.90
19781;DHT22;10050;55.492;13.506;2022-12-10T06:44:45;1.60;99.90
19781;DHT22;10050;55.492;13.506;2022-12-10T06:47:10;1.60;99.90
19781;DHT22;10050;55.492;13.506;2022-12-10T06:49:36;1.60;99.90
19781;DHT22;10050;55.492;13.506;2022-12-10T06:52:02;1.70;99.90
19781;DHT22;10050;55.492;13.506;2022-12-10T06:54:28;1.60;99.90
19781;DHT22;10050;55.492;13.506;2022-12-10T06:56:54;1.60;99.90
19781;DHT22;10050;55.492;13.506;2022-12-10T06:59:19;1.70;99.90
19781;DHT22;10050;55.492;13.506;2022-12-10T07:01:46;1.70;99.90
19781;DHT22;10050;55.492;13.506;2022-12-10T07:04:12;1.70;99.90
19781;DHT22;10050;55.492;13.506;2022-12-10T07:06:38;1.70;99.90
19781;DHT22;10050;55.492;13.506;2022-12-10T07:09:04;1.80;99.90
19781;DHT22;10050;55.492;13.506;2022-12-10T07:11:29;1.80;99.90
19781;DHT22;10050;55.492;13.506;2022-12-10T07:13:56;1.80;99.90
19781;DHT22;10050;55.492;13.506;2022-12-10T07:16:25;1.80;99.90
19781;DHT22;10050;55.492;13.506;2022-12-10T07:18:52;1.80;99.90
19781;DHT22;10050;55.492;13.506;2022-12-10T07:21:21;1.70;99.90
19781;DHT22;10050;55.492;13.506;2022-12-10T07:23:47;1.80;99.90
19781;DHT22;10050;55.492;13.506;2022-12-10T07:26:13;1.80;99.90
19781;DHT22;10050;55.492;13.506;2022-12-10T07:28:39;1.90;99.90
19781;DHT22;10050;55.492;13.506;2022-12-10T07:31:06;1.90;99.90
19781;DHT22;10050;55.492;13.506;2022-12-10T07:33:33;1.90;99.90
19781;DHT22;10050;55.492;13.506;2022-12-10T07:35:59;1.90;99.90
19781;DHT22;10050;55.492;13.506;2022-12-10T07:38:25;1.90;99.90
19781;DHT22;10050;55.492;13.506;2022-12-10T07:40:51;1.90;99.90
19781;DHT22;10050;55.492;13.506;2022-12-10T07:43:17;1.90;99.90
19781;DHT22;10050;55.492;13.506;2022-12-10T07:45:43;1.90;99.90
19781;DHT22;10050;55.492;13.506;2022-12-10T07:48:09;1.90;99.90
19781;DHT22;10050;55.492;13.506;2022-12-10T07:50:35;2.00;99.90
19781;DHT22;10050;55.492;13.506;2022-12-10T07:53:01;2.00;99.90
19781;DHT22;10050;55.492;13.506;2022-12-10T07:55:26;2.00;99.90
19781;DHT22;10050;55.492;13.506;2022-12-10T07:57:52;2.00;99.90
19781;DHT22;10050;55.492;13.506;2022-12-10T08:00:18;2.00;99.90
19781;DHT22;10050;55.492;13.506;2022-12-10T08:02:43;2.00;99.90
19781;DHT22;10050;55.492;13.506;2022-12-10T08:05:09;2.00;99.90
19781;DHT22;10050;55.492;13.506;2022-12-10T08:07:35;2.00;99.90
19781;DHT22;10050;55.492;13.506;2022-12-10T08:10:01;2.00;99.90
19781;DHT22;10050;55.492;13.506;2022-12-10T08:12:27;2.00;99.90
19781;DHT22;10050;55.492;13.506;2022-12-10T08:14:52;2.00;99.90
19781;DHT22;10050;55.492;13.506;2022-12-10T08:17:18;2.00;99.90
19781;DHT22;10050;55.492;13.506;2022-12-10T08:19:43;2.00;99.90
19781;DHT22;10050;55.492;13.506;2022-12-10T08:22:09;2.00;99.90
19781;DHT22;10050;55.492;13.506;2022-12-10T08:24:35;2.00;99.90
19781;DHT22;10050;55.492;13.506;2022-12-10T08:27:01;1.90;99.90
19781;DHT22;10050;55.492;13.506;2022-12-10T08:29:26;1.90;99.90
19781;DHT22;10050;55.492;13.506;2022-12-10T08:31:52;1.90;99.90
19781;DHT22;10050;55.492;13.506;2022-12-10T08:34:18;1.90;99.90
19781;DHT22;10050;55.492;13.506;2022-12-10T08:36:45;1.90;99.90
19781;DHT22;10050;55.492;13.506;2022-12-10T08:39:11;1.90;99.90
19781;DHT22;10050;55.492;13.506;2022-12-10T08:41:40;1.90;99.90
19781;DHT22;10050;55.492;13.506;2022-12-10T08:44:06;2.00;99.90
19781;DHT22;10050;55.492;13.506;2022-12-10T08:46:32;2.00;99.90
19781;DHT22;10050;55.492;13.506;2022-12-10T08:48:58;2.10;99.90
19781;DHT22;10050;55.492;13.506;2022-12-10T08:51:24;2.00;99.90
19781;DHT22;10050;55.492;13.506;2022-12-10T08:53:50;1.90;99.90
19781;DHT22;10050;55.492;13.506;2022-12-10T08:56:15;1.90;99.90
19781;DHT22;10050;55.492;13.506;2022-12-10T08:58:41;1.90;99.90
19781;DHT22;10050;55.492;13.506;2022-12-10T09:01:08;2.00;99.90
19781;DHT22;10050;55.492;13.506;2022-12-10T09:03:36;2.10;99.90
19781;DHT22;10050;55.492;13.506;2022-12-10T09:06:04;2.10;99.90
19781;DHT22;10050;55.492;13.506;2022-12-10T09:08:30;2.10;99.90
19781;DHT22;10050;55.492;13.506;2022-12-10T09:10:56;2.10;99.90
19781;DHT22;10050;55.492;13.506;2022-12-10T09:13:21;2.20;99.90
19781;DHT22;10050;55.492;13.506;2022-12-10T09:15:52;2.20;99.90
19781;DHT22;10050;55.492;13.506;2022-12-10T09:18:18;2.30;99.90
19781;DHT22;10050;55.492;13.506;2022-12-10T09:20:43;2.40;99.90
19781;DHT22;10050;55.492;13.506;2022-12-10T09:23:09;2.40;99.90
19781;DHT22;10050;55.492;13.506;2022-12-10T09:25:35;2.40;99.90
19781;DHT22;10050;55.492;13.506;2022-12-10T09:28:01;2.50;99.90
19781;DHT22;10050;55.492;13.506;2022-12-10T09:30:26;2.40;99.90
19781;DHT22;10050;55.492;13.506;2022-12-10T09:32:52;2.50;99.90
19781;DHT22;10050;55.492;13.506;2022-12-10T09:35:18;2.40;99.90
19781;DHT22;10050;55.492;13.506;2022-12-10T09:37:43;2.40;99.90
19781;DHT22;10050;55.492;13.506;2022-12-10T09:40:15;2.40;99.90
19781;DHT22;10050;55.492;13.506;2022-12-10T09:50:41;2.60;99.90
19781;DHT22;10050;55.492;13.506;2022-12-10T09:53:14;2.60;99.90
19781;DHT22;10050;55.492;13.506;2022-12-10T09:55:44;2.70;99.90
19781;DHT22;10050;55.492;13.506;2022-12-10T09:58:20;2.50;99.90
19781;DHT22;10050;55.492;13.506;2022-12-10T10:00:49;2.50;99.90
19781;DHT22;10050;55.492;13.506;2022-12-10T10:03:17;2.50;99.90
19781;DHT22;10050;55.492;13.506;2022-12-10T10:05:51;2.60;99.90
19781;DHT22;10050;55.492;13.506;2022-12-10T10:11:24;2.70;99.90
19781;DHT22;10050;55.492;13.506;2022-12-10T10:13:57;2.80;99.90
19781;DHT22;10050;55.492;13.506;2022-12-10T10:18:58;2.70;99.90
19781;DHT22;10050;55.492;13.506;2022-12-10T10:21:27;2.80;99.90
19781;DHT22;10050;55.492;13.506;2022-12-10T10:23:55;2.80;99.90
19781;DHT22;10050;55.492;13.506;2022-12-10T10:26:23;2.90;99.90
19781;DHT22;10050;55.492;13.506;2022-12-10T10:28:56;2.90;99.90
19781;DHT22;10050;55.492;13.506;2022-12-10T10:31:27;2.90;99.90
19781;DHT22;10050;55.492;13.506;2022-12-10T10:33:55;2.90;99.90
19781;DHT22;10050;55.492;13.506;2022-12-10T10:36:27;2.90;99.90
19781;DHT22;10050;55.492;13.506;2022-12-10T10:38:53;2.80;99.90
19781;DHT22;10050;55.492;13.506;2022-12-10T10:41:19;2.70;99.90
19781;DHT22;10050;55.492;13.506;2022-12-10T10:43:46;2.70;99.90
19781;DHT22;10050;55.492;13.506;2022-12-10T10:46:17;2.70;99.90
19781;DHT22;10050;55.492;13.506;2022-12-10T10:48:46;2.80;99.90
19781;DHT22;10050;55.492;13.506;2022-12-10T10:53:45;2.90;99.90
19781;DHT22;10050;55.492;13.506;2022-12-10T10:56:17;3.00;99.90
19781;DHT22;10050;55.492;13.506;2022-12-10T10:59:06;3.00;99.90
19781;DHT22;10050;55.492;13.506;2022-12-10T11:01:54;3.00;99.90
19781;DHT22;10050;55.492;13.506;2022-12-10T11:04:29;3.00;99.90
19781;DHT22;10050;55.492;13.506;2022-12-10T11:07:00;3.00;99.90
19781;DHT22;10050;55.492;13.506;2022-12-10T11:09:31;3.00;99.90
19781;DHT22;10050;55.492;13.506;2022-12-10T11:12:00;3.00;99.90
19781;DHT22;10050;55.492;13.506;2022-12-10T11:14:31;3.00;99.90
19781;DHT22;10050;55.492;13.506;2022-12-10T11:19:36;2.90;99.90
19781;DHT22;10050;55.492;13.506;2022-12-10T11:22:24;2.90;99.90
19781;DHT22;10050;55.492;13.506;2022-12-10T11:24:50;3.00;99.90
19781;DHT22;10050;55.492;13.506;2022-12-10T11:27:36;2.90;99.90
19781;DHT22;10050;55.492;13.506;2022-12-10T11:30:23;2.80;99.90
19781;DHT22;10050;55.492;13.506;2022-12-10T11:44:14;2.80;99.90
19781;DHT22;10050;55.492;13.506;2022-12-10T11:49:47;2.90;99.90
19781;DHT22;10050;55.492;13.506;2022-12-10T11:52:40;3.00;99.90
19781;DHT22;10050;55.492;13.506;2022-12-10T11:55:52;3.20;99.90
19781;DHT22;10050;55.492;13.506;2022-12-10T12:15:16;3.30;99.90
19781;DHT22;10050;55.492;13.506;2022-12-10T12:17:50;3.30;99.90
19781;DHT22;10050;55.492;13.506;2022-12-10T12:20:25;3.30;99.90
19781;DHT22;10050;55.492;13.506;2022-12-10T12:22:58;3.30;99.90
19781;DHT22;10050;55.492;13.506;2022-12-10T12:25:33;3.30;99.90
19781;DHT22;10050;55.492;13.506;2022-12-10T12:28:05;3.30;99.90
19781;DHT22;10050;55.492;13.506;2022-12-10T12:30:35;3.30;99.90
19781;DHT22;10050;55.492;13.506;2022-12-10T12:34:14;3.30;99.90
19781;DHT22;10050;55.492;13.506;2022-12-10T12:36:17;3.30;99.90
19781;DHT22;10050;55.492;13.506;2022-12-10T12:46:45;3.20;99.90
19781;DHT22;10050;55.492;13.506;2022-12-10T12:54:46;3.10;99.90
19781;DHT22;10050;55.492;13.506;2022-12-10T12:57:30;3.00;99.90
19781;DHT22;10050;55.492;13.506;2022-12-10T13:00:12;3.00;99.90
19781;DHT22;10050;55.492;13.506;2022-12-10T13:03:17;3.00;99.90
19781;DHT22;10050;55.492;13.506;2022-12-10T13:05:44;3.00;99.90
19781;DHT22;10050;55.492;13.506;2022-12-10T13:10:56;2.90;99.90
19781;DHT22;10050;55.492;13.506;2022-12-10T13:13:26;2.90;99.90
19781;DHT22;10050;55.492;13.506;2022-12-10T13:15:53;2.80;99.90
19781;DHT22;10050;55.492;13.506;2022-12-10T13:18:35;2.80;99.90
19781;DHT22;10050;55.492;13.506;2022-12-10T13:23:51;2.70;99.90
19781;DHT22;10050;55.492;13.506;2022-12-10T13:26:28;2.70;99.90
19781;DHT22;10050;55.492;13.506;2022-12-10T13:28:57;2.70;99.90
19781;DHT22;10050;55.492;13.506;2022-12-10T13:31:37;2.60;99.90
19781;DHT22;10050;55.492;13.506;2022-12-10T13:39:54;2.60;99.90
19781;DHT22;10050;55.492;13.506;2022-12-10T13:42:28;2.60;99.90
19781;DHT22;10050;55.492;13.506;2022-12-10T13:45:24;2.50;99.90
19781;DHT22;10050;55.492;13.506;2022-12-10T13:51:02;2.40;99.90
19781;DHT22;10050;55.492;13.506;2022-12-10T13:54:00;2.30;99.90
19781;DHT22;10050;55.492;13.506;2022-12-10T13:56:39;2.30;99.90
19781;DHT22;10050;55.492;13.506;2022-12-10T14:02:37;2.30;99.90
19781;DHT22;10050;55.492;13.506;2022-12-10T14:08:10;1.80;99.90
19781;DHT22;10050;55.492;13.506;2022-12-10T14:10:41;1.70;99.90
19781;DHT22;10050;55.492;13.506;2022-12-10T14:13:11;1.80;99.90
19781;DHT22;10050;55.492;13.506;2022-12-10T14:15:38;1.70;99.90
19781;DHT22;10050;55.492;13.506;2022-12-10T14:18:13;1.80;99.90
19781;DHT22;10050;55.492;13.506;2022-12-10T14:20:45;1.70;99.90
19781;DHT22;10050;55.492;13.506;2022-12-10T14:23:27;1.60;99.90
19781;DHT22;10050;55.492;13.506;2022-12-10T14:26:20;1.60;99.90
19781;DHT22;10050;55.492;13.506;2022-12-10T14:29:01;1.60;99.90
19781;DHT22;10050;55.492;13.506;2022-12-10T14:31:32;1.70;99.90
19781;DHT22;10050;55.492;13.506;2022-12-10T14:34:19;1.70;99.90
19781;DHT22;10050;55.492;13.506;2022-12-10T14:36:57;1.70;99.90
19781;DHT22;10050;55.492;13.506;2022-12-10T14:39:28;1.70;99.90
19781;DHT22;10050;55.492;13.506;2022-12-10T14:42:00;1.70;99.90
19781;DHT22;10050;55.492;13.506;2022-12-10T14:44:27;1.70;99.90
19781;DHT22;10050;55.492;13.506;2022-12-10T14:47:04;1.70;99.90
19781;DHT22;10050;55.492;13.506;2022-12-10T14:49:30;1.70;99.90
19781;DHT22;10050;55.492;13.506;2022-12-10T14:51:56;1.70;99.90
19781;DHT22;10050;55.492;13.506;2022-12-10T14:54:27;1.70;99.90
19781;DHT22;10050;55.492;13.506;2022-12-10T14:56:55;1.70;99.90
19781;DHT22;10050;55.492;13.506;2022-12-10T14:59:26;1.70;99.90
19781;DHT22;10050;55.492;13.506;2022-12-10T15:01:57;1.70;99.90
19781;DHT22;10050;55.492;13.506;2022-12-10T15:04:29;1.70;99.90
19781;DHT22;10050;55.492;13.506;2022-12-10T15:06:58;1.60;99.90
19781;DHT22;10050;55.492;13.506;2022-12-10T15:09:26;1.60;99.90
19781;DHT22;10050;55.492;13.506;2022-12-10T15:11:59;1.60;99.90
19781;DHT22;10050;55.492;13.506;2022-12-10T15:14:27;1.60;99.90
19781;DHT22;10050;55.492;13.506;2022-12-10T15:16:53;1.60;99.90
19781;DHT22;10050;55.492;13.506;2022-12-10T15:21:48;1.70;99.90
19781;DHT22;10050;55.492;13.506;2022-12-10T15:26:43;1.60;99.90
19781;DHT22;10050;55.492;13.506;2022-12-10T15:29:30;1.60;99.90
19781;DHT22;10050;55.492;13.506;2022-12-10T15:32:13;1.60;99.90
19781;DHT22;10050;55.492;13.506;2022-12-10T15:34:44;1.60;99.90
19781;DHT22;10050;55.492;13.506;2022-12-10T15:37:20;1.60;99.90
19781;DHT22;10050;55.492;13.506;2022-12-10T15:39:56;1.60;99.90
19781;DHT22;10050;55.492;13.506;2022-12-10T15:42:43;1.50;99.90
19781;DHT22;10050;55.492;13.506;2022-12-10T15:45:25;1.50;99.90
19781;DHT22;10050;55.492;13.506;2022-12-10T15:47:52;1.50;99.90
19781;DHT22;10050;55.492;13.506;2022-12-10T15:50:19;1.50;99.90
19781;DHT22;10050;55.492;13.506;2022-12-10T15:52:45;1.50;99.90
19781;DHT22;10050;55.492;13.506;2022-12-10T15:55:12;1.40;99.90
19781;DHT22;10050;55.492;13.506;2022-12-10T15:57:39;1.40;99.90
19781;DHT22;10050;55.492;13.506;2022-12-10T16:00:25;1.40;99.90
19781;DHT22;10050;55.492;13.506;2022-12-10T16:05:23;1.30;99.90
19781;DHT22;10050;55.492;13.506;2022-12-10T16:07:51;1.30;99.90
19781;DHT22;10050;55.492;13.506;2022-12-10T16:10:18;1.30;99.90
19781;DHT22;10050;55.492;13.506;2022-12-10T16:13:03;1.20;99.90
19781;DHT22;10050;55.492;13.506;2022-12-10T16:15:36;1.20;99.90
19781;DHT22;10050;55.492;13.506;2022-12-10T16:18:07;1.10;99.90
19781;DHT22;10050;55.492;13.506;2022-12-10T16:20:34;1.10;99.90
19781;DHT22;10050;55.492;13.506;2022-12-10T16:23:00;1.10;99.90
19781;DHT22;10050;55.492;13.506;2022-12-10T16:25:28;1.00;99.90
19781;DHT22;10050;55.492;13.506;2022-12-10T16:27:55;0.90;99.90
19781;DHT22;10050;55.492;13.506;2022-12-10T16:30:33;0.90;99.90
19781;DHT22;10050;55.492;13.506;2022-12-10T16:33:00;0.90;99.90
19781;DHT22;10050;55.492;13.506;2022-12-10T16:35:26;0.80;99.90
19781;DHT22;10050;55.492;13.506;2022-12-10T16:37:51;0.80;99.90
19781;DHT22;10050;55.492;13.506;2022-12-10T16:40:21;0.80;99.90
19781;DHT22;10050;55.492;13.506;2022-12-10T16:42:48;0.80;99.90
19781;DHT22;10050;55.492;13.506;2022-12-10T16:45:18;0.80;99.90
19781;DHT22;10050;55.492;13.506;2022-12-10T16:47:44;0.70;99.90
19781;DHT22;10050;55.492;13.506;2022-12-10T16:50:11;0.70;99.90
19781;DHT22;10050;55.492;13.506;2022-12-10T16:52:38;0.70;99.90
19781;DHT22;10050;55.492;13.506;2022-12-10T16:55:05;0.60;99.90
19781;DHT22;10050;55.492;13.506;2022-12-10T16:57:33;0.60;99.90
19781;DHT22;10050;55.492;13.506;2022-12-10T16:59:59;0.50;99.90
19781;DHT22;10050;55.492;13.506;2022-12-10T17:02:24;0.60;99.90
19781;DHT22;10050;55.492;13.506;2022-12-10T17:04:50;0.60;99.90
19781;DHT22;10050;55.492;13.506;2022-12-10T17:07:15;0.50;99.90
19781;DHT22;10050;55.492;13.506;2022-12-10T17:09:41;0.50;99.90
19781;DHT22;10050;55.492;13.506;2022-12-10T17:12:09;0.60;99.90
19781;DHT22;10050;55.492;13.506;2022-12-10T17:14:40;0.60;99.90
19781;DHT22;10050;55.492;13.506;2022-12-10T17:17:08;0.50;99.90
19781;DHT22;10050;55.492;13.506;2022-12-10T17:19:36;0.50;99.90
19781;DHT22;10050;55.492;13.506;2022-12-10T17:22:03;0.50;99.90
19781;DHT22;10050;55.492;13.506;2022-12-10T17:24:30;0.50;99.90
19781;DHT22;10050;55.492;13.506;2022-12-10T17:27:05;0.50;99.90
19781;DHT22;10050;55.492;13.506;2022-12-10T17:29:35;0.50;99.90
19781;DHT22;10050;55.492;13.506;2022-12-10T17:32:02;0.50;99.90
19781;DHT22;10050;55.492;13.506;2022-12-10T17:34:28;0.50;99.90
19781;DHT22;10050;55.492;13.506;2022-12-10T17:36:55;0.50;99.90
19781;DHT22;10050;55.492;13.506;2022-12-10T17:39:21;0.50;99.90